createdAt,value
2018-05-18T00:01:03.567Z,10.30
2018-05-18T00:03:31.057Z,10.30
2018-05-18T00:05:59.334Z,10.40
2018-05-18T00:08:26.812Z,10.40
2018-05-18T00:10:55.060Z,10.30
2018-05-18T00:13:22.537Z,10.30
2018-05-18T00:15:50.830Z,10.30
2018-05-18T00:18:18.333Z,10.30
2018-05-18T00:20:45.841Z,10.40
2018-05-18T00:23:14.082Z,10.30
2018-05-18T00:25:41.585Z,10.30
2018-05-18T00:28:09.082Z,10.30
2018-05-18T00:30:36.549Z,10.30
2018-05-18T00:33:04.061Z,10.30
2018-05-18T00:35:31.576Z,10.30
2018-05-18T00:37:59.109Z,10.30
2018-05-18T00:40:26.578Z,10.30
2018-05-18T00:42:54.194Z,10.30
2018-05-18T00:45:22.420Z,10.30
2018-05-18T00:47:49.933Z,10.30
2018-05-18T00:50:18.189Z,10.30
2018-05-18T00:52:45.703Z,10.20
2018-05-18T00:55:25.176Z,10.30
2018-05-18T00:57:52.669Z,10.20
2018-05-18T01:00:20.165Z,10.20
2018-05-18T01:02:47.700Z,10.20
2018-05-18T01:05:15.198Z,10.20
2018-05-18T01:07:42.693Z,10.20
2018-05-18T01:10:10.957Z,10.20
2018-05-18T01:12:38.477Z,10.20
2018-05-18T01:15:05.958Z,10.10
2018-05-18T01:17:33.446Z,10.10
2018-05-18T01:20:01.728Z,10.20
2018-05-18T01:22:29.965Z,10.20
2018-05-18T01:24:57.454Z,10.20
2018-05-18T01:27:25.700Z,10.20
2018-05-18T01:29:53.198Z,10.20
2018-05-18T01:32:21.489Z,10.20
2018-05-18T01:34:48.986Z,10.20
2018-05-18T01:37:16.453Z,10.20
2018-05-18T01:39:43.981Z,10.10
2018-05-18T01:42:11.458Z,10.10
2018-05-18T01:44:38.974Z,10.10
2018-05-18T01:47:07.212Z,10.10
2018-05-18T01:49:34.737Z,10.10
2018-05-18T01:52:02.204Z,10.10
2018-05-18T01:54:29.713Z,10.00
2018-05-18T01:56:57.957Z,10.00
2018-05-18T01:59:25.496Z,10.00
2018-05-18T02:01:52.970Z,10.00
2018-05-18T02:04:20.490Z,10.00
2018-05-18T02:06:47.985Z,10.00
2018-05-18T02:09:15.452Z,10.00
2018-05-18T02:11:42.973Z,10.10
2018-05-18T02:14:10.475Z,10.00
2018-05-18T02:16:37.957Z,10.00
2018-05-18T02:19:06.204Z,10.00
2018-05-18T02:21:33.713Z,10.00
2018-05-18T02:24:01.207Z,10.00
2018-05-18T02:26:28.710Z,10.00
2018-05-18T02:28:57.039Z,9.90
2018-05-18T02:31:24.551Z,9.90
2018-05-18T02:33:52.790Z,9.90
2018-05-18T02:36:20.294Z,9.80
2018-05-18T02:38:48.537Z,9.90
2018-05-18T02:41:16.057Z,9.90
2018-05-18T02:43:43.570Z,9.80
2018-05-18T02:46:11.067Z,9.80
2018-05-18T02:48:38.548Z,9.80
2018-05-18T02:51:06.025Z,9.80
2018-05-18T02:53:33.527Z,9.80
2018-05-18T02:56:01.785Z,9.70
2018-05-18T02:58:29.281Z,9.70
2018-05-18T03:00:56.749Z,9.70
2018-05-18T03:03:24.233Z,9.70
2018-05-18T03:05:51.717Z,9.70
2018-05-18T03:08:19.234Z,9.60
2018-05-18T03:10:46.709Z,9.60
2018-05-18T03:13:14.204Z,9.60
2018-05-18T03:15:42.459Z,9.50
2018-05-18T03:18:09.968Z,9.50
2018-05-18T03:20:37.437Z,9.50
2018-05-18T03:23:04.942Z,9.50
2018-05-18T03:25:32.411Z,9.40
2018-05-18T03:28:00.687Z,9.40
2018-05-18T03:30:28.168Z,9.40
2018-05-18T03:32:55.658Z,9.40
2018-05-18T03:35:23.113Z,9.30
2018-05-18T03:37:50.633Z,9.20
2018-05-18T03:40:18.905Z,9.10
2018-05-18T03:42:47.166Z,9.00
2018-05-18T03:45:14.664Z,9.00
2018-05-18T03:47:42.141Z,9.00
2018-05-18T03:50:09.649Z,8.90
2018-05-18T03:52:37.904Z,8.90
2018-05-18T03:55:05.400Z,8.80
2018-05-18T03:57:33.654Z,8.70
2018-05-18T04:00:02.665Z,8.70
2018-05-18T04:02:42.937Z,8.60
2018-05-18T04:05:22.355Z,8.50
2018-05-18T04:08:01.707Z,8.50
2018-05-18T04:10:29.207Z,8.50
2018-05-18T04:12:56.682Z,8.40
2018-05-18T04:15:24.181Z,8.40
2018-05-18T04:17:52.452Z,8.40
2018-05-18T04:20:20.715Z,8.40
2018-05-18T04:22:48.229Z,8.40
2018-05-18T04:25:15.716Z,8.40
2018-05-18T04:27:43.213Z,8.30
2018-05-18T04:30:11.697Z,8.40
2018-05-18T04:32:39.941Z,8.30
2018-05-18T04:35:07.417Z,8.30
2018-05-18T04:37:35.681Z,8.30
2018-05-18T04:40:03.180Z,8.30
2018-05-18T04:42:30.690Z,8.30
2018-05-18T04:44:58.171Z,8.30
2018-05-18T04:47:26.438Z,8.40
2018-05-18T04:49:54.719Z,8.40
2018-05-18T04:52:22.233Z,8.40
2018-05-18T04:54:49.709Z,8.40
2018-05-18T04:57:17.237Z,8.40
2018-05-18T04:59:44.744Z,8.40
2018-05-18T05:02:12.251Z,8.40
2018-05-18T05:04:39.769Z,8.50
2018-05-18T05:07:08.019Z,8.50
2018-05-18T05:09:35.526Z,8.50
2018-05-18T05:12:03.789Z,8.60
2018-05-18T05:14:31.277Z,8.60
2018-05-18T05:16:58.753Z,8.70
2018-05-18T05:19:26.256Z,8.80
2018-05-18T05:21:53.746Z,8.90
2018-05-18T05:24:21.262Z,9.00
2018-05-18T05:26:48.761Z,9.00
2018-05-18T05:29:17.046Z,9.20
2018-05-18T05:31:44.525Z,9.20
2018-05-18T05:34:12.019Z,9.30
2018-05-18T05:36:39.601Z,9.40
2018-05-18T05:39:07.054Z,9.60
2018-05-18T05:41:34.538Z,9.60
2018-05-18T05:44:02.042Z,9.80
2018-05-18T05:46:29.550Z,9.90
2018-05-18T05:48:57.825Z,10.10
2018-05-18T05:51:25.348Z,10.10
2018-05-18T05:53:52.843Z,10.30
2018-05-18T05:56:21.092Z,10.60
2018-05-18T05:58:48.709Z,10.50
2018-05-18T06:01:16.230Z,10.70
2018-05-18T06:03:44.501Z,11.00
2018-05-18T06:06:12.789Z,11.20
2018-05-18T06:08:41.042Z,11.40
2018-05-18T06:11:08.555Z,11.30
2018-05-18T06:13:36.043Z,11.60
2018-05-18T06:16:03.556Z,11.80
2018-05-18T06:18:31.045Z,11.90
2018-05-18T06:20:58.564Z,12.20
2018-05-18T06:23:26.057Z,12.40
2018-05-18T06:25:53.584Z,12.50
2018-05-18T06:28:21.836Z,13.00
2018-05-18T06:30:50.122Z,13.30
2018-05-18T06:33:17.624Z,13.30
2018-05-18T06:35:45.108Z,13.40
2018-05-18T06:38:12.613Z,13.60
2018-05-18T06:40:40.875Z,13.80
2018-05-18T06:43:08.397Z,13.80
2018-05-18T06:45:35.890Z,14.00
2018-05-18T06:48:03.431Z,14.10
2018-05-18T06:50:30.918Z,14.40
2018-05-18T06:52:59.194Z,14.70
2018-05-18T06:55:27.470Z,14.60
2018-05-18T06:57:54.993Z,14.60
2018-05-18T07:00:22.469Z,15.00
2018-05-18T07:02:50.006Z,15.10
2018-05-18T07:05:18.342Z,15.20
2018-05-18T07:07:45.876Z,15.10
2018-05-18T07:10:13.357Z,15.50
2018-05-18T07:12:40.863Z,15.30
2018-05-18T07:15:08.362Z,15.40
2018-05-18T07:17:36.653Z,16.00
2018-05-18T07:20:04.140Z,15.90
2018-05-18T07:22:31.633Z,16.00
2018-05-18T07:24:59.133Z,16.30
2018-05-18T07:27:26.710Z,16.30
2018-05-18T07:29:54.226Z,16.50
2018-05-18T07:32:21.713Z,16.60
2018-05-18T07:34:49.221Z,16.90
2018-05-18T07:37:16.717Z,16.90
2018-05-18T07:39:44.998Z,16.90
2018-05-18T07:42:13.254Z,17.20
2018-05-18T07:44:40.775Z,17.20
2018-05-18T07:47:08.276Z,17.30
2018-05-18T07:49:35.801Z,17.20
2018-05-18T07:52:03.303Z,17.50
2018-05-18T07:54:31.597Z,17.90
2018-05-18T07:56:59.077Z,17.90
2018-05-18T07:59:26.589Z,17.90
2018-05-18T08:01:54.082Z,17.50
2018-05-18T08:04:21.583Z,17.80
2018-05-18T08:06:49.094Z,17.70
2018-05-18T08:09:16.621Z,17.40
2018-05-18T08:11:44.133Z,17.20
2018-05-18T08:14:11.638Z,17.10
2018-05-18T08:16:39.125Z,17.00
2018-05-18T08:19:06.637Z,17.40
2018-05-18T08:21:34.252Z,17.60
2018-05-18T08:24:01.643Z,18.10
2018-05-18T08:26:29.155Z,18.40
2018-05-18T08:29:09.237Z,18.50
2018-05-18T08:31:36.741Z,18.50
2018-05-18T08:34:04.238Z,18.60
2018-05-18T08:36:32.517Z,18.40
2018-05-18T08:38:59.982Z,18.30
2018-05-18T08:41:27.504Z,18.30
2018-05-18T08:43:54.981Z,19.00
2018-05-18T08:46:23.258Z,19.10
2018-05-18T08:48:51.807Z,18.90
2018-05-18T08:51:19.281Z,18.90
2018-05-18T08:53:46.773Z,18.80
2018-05-18T08:56:14.306Z,18.60
2018-05-18T08:58:41.826Z,18.50
2018-05-18T09:01:09.294Z,17.70
2018-05-18T09:03:36.810Z,18.60
2018-05-18T09:06:04.301Z,19.10
2018-05-18T09:08:31.830Z,18.90
2018-05-18T09:10:59.360Z,18.40
2018-05-18T09:13:26.845Z,18.30
2018-05-18T09:15:54.363Z,18.90
2018-05-18T09:18:21.854Z,18.90
2018-05-18T09:20:49.376Z,19.10
2018-05-18T09:23:16.865Z,19.90
2018-05-18T09:25:45.165Z,19.30
2018-05-18T09:28:12.647Z,19.30
2018-05-18T09:30:40.685Z,19.10
2018-05-18T09:33:08.915Z,19.00
2018-05-18T09:35:36.421Z,18.90
2018-05-18T09:38:03.930Z,18.90
2018-05-18T09:40:31.439Z,19.90
2018-05-18T09:42:58.925Z,20.00
2018-05-18T09:45:26.385Z,20.40
2018-05-18T09:47:53.902Z,20.50
2018-05-18T09:50:22.162Z,21.00
2018-05-18T09:52:49.688Z,21.00
2018-05-18T09:55:24.421Z,20.30
2018-05-18T09:57:51.785Z,19.90
2018-05-18T10:00:19.268Z,19.90
2018-05-18T10:02:47.541Z,20.80
2018-05-18T10:05:15.036Z,20.80
2018-05-18T10:07:42.545Z,21.50
2018-05-18T10:10:10.046Z,21.50
2018-05-18T10:12:38.689Z,21.20
2018-05-18T10:15:06.189Z,21.00
2018-05-18T10:17:34.475Z,21.00
2018-05-18T10:20:01.961Z,21.10
2018-05-18T10:22:29.440Z,21.10
2018-05-18T10:24:56.955Z,21.20
2018-05-18T10:27:24.445Z,20.70
2018-05-18T10:29:51.946Z,20.30
2018-05-18T10:32:20.205Z,19.60
2018-05-18T10:34:47.707Z,19.60
2018-05-18T10:37:15.186Z,19.30
2018-05-18T10:39:42.714Z,20.10
2018-05-18T10:42:10.963Z,20.70
2018-05-18T10:44:38.470Z,20.70
2018-05-18T10:47:06.777Z,21.20
2018-05-18T10:49:34.285Z,21.20
2018-05-18T10:52:02.540Z,21.90
2018-05-18T10:54:30.609Z,21.80
2018-05-18T10:56:58.853Z,22.20
2018-05-18T10:59:26.328Z,22.20
2018-05-18T11:01:53.851Z,22.10
2018-05-18T11:04:21.368Z,22.00
2018-05-18T11:06:49.692Z,22.30
2018-05-18T11:09:17.177Z,22.20
2018-05-18T11:11:44.678Z,22.30
2018-05-18T11:14:12.952Z,23.10
2018-05-18T11:16:40.551Z,23.10
2018-05-18T11:19:08.047Z,23.20
2018-05-18T11:21:35.545Z,23.10
2018-05-18T11:24:03.376Z,23.20
2018-05-18T11:26:32.515Z,22.60
2018-05-18T11:28:59.974Z,22.60
2018-05-18T11:31:27.473Z,22.20
2018-05-18T11:33:55.017Z,22.00
2018-05-18T11:36:23.777Z,22.30
2018-05-18T11:38:51.257Z,22.30
2018-05-18T11:41:18.749Z,22.40
2018-05-18T11:43:46.248Z,22.50
2018-05-18T11:46:13.734Z,22.30
2018-05-18T11:48:41.236Z,22.00
2018-05-18T11:51:08.709Z,21.90
2018-05-18T11:53:36.973Z,22.40
2018-05-18T11:56:05.222Z,22.30
2018-05-18T11:58:32.733Z,22.20
2018-05-18T12:01:00.218Z,21.80
2018-05-18T12:03:27.689Z,21.80
2018-05-18T12:05:55.196Z,22.40
2018-05-18T12:08:23.714Z,22.90
2018-05-18T12:10:51.850Z,22.80
2018-05-18T12:13:20.106Z,23.40
2018-05-18T12:15:47.627Z,23.40
2018-05-18T12:18:15.101Z,23.40
2018-05-18T12:20:42.605Z,23.50
2018-05-18T12:23:10.894Z,23.80
2018-05-18T12:25:39.164Z,24.20
2018-05-18T12:28:07.428Z,24.20
2018-05-18T12:30:35.701Z,24.20
2018-05-18T12:33:03.171Z,24.10
2018-05-18T12:35:31.567Z,24.30
2018-05-18T12:37:59.832Z,24.20
2018-05-18T12:40:27.362Z,24.20
2018-05-18T12:42:55.692Z,24.30
2018-05-18T12:45:23.190Z,24.40
2018-05-18T12:47:50.704Z,24.70
2018-05-18T12:50:18.283Z,24.60
2018-05-18T12:52:45.766Z,24.60
2018-05-18T12:55:13.245Z,24.30
2018-05-18T12:57:41.521Z,23.20
2018-05-18T13:00:08.994Z,23.10
2018-05-18T13:02:37.230Z,23.80
2018-05-18T13:05:04.760Z,23.80
2018-05-18T13:07:32.249Z,24.10
2018-05-18T13:09:59.764Z,23.90
2018-05-18T13:12:27.274Z,23.70
2018-05-18T13:14:54.818Z,23.60
2018-05-18T13:17:22.360Z,22.40
2018-05-18T13:19:49.840Z,21.90
2018-05-18T13:22:17.365Z,21.60
2018-05-18T13:24:44.856Z,21.60
2018-05-18T13:27:12.350Z,21.50
2018-05-18T13:29:39.841Z,21.90
2018-05-18T13:32:07.356Z,22.20
2018-05-18T13:34:34.840Z,22.30
2018-05-18T13:37:03.080Z,21.60
2018-05-18T13:39:30.613Z,21.50
2018-05-18T13:41:58.081Z,22.30
2018-05-18T13:44:25.587Z,22.40
2018-05-18T13:46:53.063Z,22.50
2018-05-18T13:49:21.336Z,23.50
2018-05-18T13:51:49.600Z,23.70
2018-05-18T13:54:17.102Z,23.60
2018-05-18T13:56:44.557Z,22.70
2018-05-18T13:59:12.079Z,22.10
2018-05-18T14:01:40.340Z,22.50
2018-05-18T14:04:07.866Z,22.40
2018-05-18T14:06:35.386Z,22.50
2018-05-18T14:09:03.661Z,23.00
2018-05-18T14:11:31.956Z,23.40
2018-05-18T14:13:59.465Z,23.40
2018-05-18T14:16:26.954Z,23.70
2018-05-18T14:18:55.188Z,23.40
2018-05-18T14:21:22.705Z,23.40
2018-05-18T14:23:50.187Z,22.90
2018-05-18T14:26:17.692Z,22.30
2018-05-18T14:28:45.177Z,22.10
2018-05-18T14:31:12.704Z,21.80
2018-05-18T14:33:40.187Z,21.70
2018-05-18T14:36:08.447Z,22.30
2018-05-18T14:38:35.928Z,22.30
2018-05-18T14:41:03.447Z,22.80
2018-05-18T14:43:30.939Z,22.90
2018-05-18T14:45:59.186Z,22.60
2018-05-18T14:48:26.706Z,22.50
2018-05-18T14:50:54.208Z,22.70
2018-05-18T14:53:21.718Z,22.70
2018-05-18T14:55:49.207Z,22.60
2018-05-18T14:58:16.735Z,22.60
2018-05-18T15:00:44.226Z,22.60
2018-05-18T15:03:11.770Z,22.40
2018-05-18T15:05:39.318Z,22.50
2018-05-18T15:08:06.779Z,22.60
2018-05-18T15:10:34.277Z,22.40
2018-05-18T15:13:01.765Z,22.40
2018-05-18T15:15:30.016Z,22.40
2018-05-18T15:17:58.282Z,22.30
2018-05-18T15:20:25.757Z,22.40
2018-05-18T15:22:53.284Z,22.40
2018-05-18T15:25:20.741Z,22.30
2018-05-18T15:27:48.273Z,22.10
2018-05-18T15:30:15.775Z,22.20
2018-05-18T15:32:43.245Z,22.00
2018-05-18T15:35:10.773Z,22.00
2018-05-18T15:37:38.265Z,22.00
2018-05-18T15:40:05.781Z,21.80
2018-05-18T15:42:33.277Z,21.90
2018-05-18T15:45:00.785Z,21.90
2018-05-18T15:47:28.300Z,21.40
2018-05-18T15:49:55.799Z,21.10
2018-05-18T15:52:23.294Z,21.00
2018-05-18T15:54:50.756Z,21.00
2018-05-18T15:57:18.298Z,20.90
2018-05-18T15:59:45.798Z,20.90
2018-05-18T16:02:13.314Z,20.70
2018-05-18T16:04:40.805Z,20.70
2018-05-18T16:07:08.314Z,20.60
2018-05-18T16:09:35.773Z,20.30
2018-05-18T16:12:03.350Z,20.30
2018-05-18T16:14:30.850Z,20.20
2018-05-18T16:16:58.369Z,20.20
2018-05-18T16:19:25.836Z,20.10
2018-05-18T16:21:53.345Z,20.00
2018-05-18T16:24:21.626Z,19.90
2018-05-18T16:26:49.937Z,19.70
2018-05-18T16:29:17.461Z,19.70
2018-05-18T16:31:45.701Z,19.50
2018-05-18T16:34:13.216Z,19.60
2018-05-18T16:36:40.724Z,19.40
2018-05-18T16:39:08.208Z,19.30
2018-05-18T16:41:36.440Z,19.10
2018-05-18T16:44:03.993Z,19.10
2018-05-18T16:46:31.506Z,19.10
2018-05-18T16:48:59.808Z,19.00
2018-05-18T16:51:27.289Z,19.00
2018-05-18T16:53:54.802Z,19.00
2018-05-18T16:56:23.098Z,18.90
2018-05-18T16:58:50.566Z,18.90
2018-05-18T17:01:18.068Z,18.70
2018-05-18T17:03:45.561Z,18.60
2018-05-18T17:06:13.853Z,18.30
2018-05-18T17:08:42.081Z,18.30
2018-05-18T17:11:09.604Z,18.30
2018-05-18T17:13:37.097Z,18.20
2018-05-18T17:16:04.584Z,18.10
2018-05-18T17:18:32.837Z,18.10
2018-05-18T17:21:00.335Z,18.00
2018-05-18T17:23:28.568Z,17.90
2018-05-18T17:25:56.118Z,17.80
2018-05-18T17:28:23.543Z,17.80
2018-05-18T17:30:51.041Z,17.60
2018-05-18T17:33:18.507Z,17.50
2018-05-18T17:35:46.035Z,17.40
2018-05-18T17:38:13.522Z,17.30
2018-05-18T17:40:41.029Z,17.40
2018-05-18T17:43:08.541Z,17.30
2018-05-18T17:45:36.034Z,17.20
2018-05-18T17:48:04.309Z,17.00
2018-05-18T17:50:32.574Z,16.90
2018-05-18T17:53:00.829Z,16.90
2018-05-18T17:55:28.347Z,16.80
2018-05-18T17:57:55.814Z,16.80
2018-05-18T18:00:23.359Z,16.80
2018-05-18T18:02:51.616Z,16.50
2018-05-18T18:05:19.903Z,16.40
2018-05-18T18:07:47.451Z,16.40
2018-05-18T18:10:14.872Z,16.40
2018-05-18T18:12:42.387Z,16.30
2018-05-18T18:15:10.647Z,16.20
2018-05-18T18:17:38.919Z,16.10
2018-05-18T18:20:07.194Z,16.00
2018-05-18T18:22:35.457Z,15.90
2018-05-18T18:25:02.944Z,15.90
2018-05-18T18:27:31.271Z,15.70
2018-05-18T18:29:58.684Z,15.70
2018-05-18T18:32:26.214Z,15.60
2018-05-18T18:34:53.707Z,15.50
2018-05-18T18:37:21.233Z,15.40
2018-05-18T18:39:48.728Z,15.30
2018-05-18T18:42:16.261Z,15.20
2018-05-18T18:44:44.508Z,15.00
2018-05-18T18:47:12.030Z,14.90
2018-05-18T18:49:39.525Z,14.80
2018-05-18T18:52:07.065Z,14.70
2018-05-18T18:54:35.296Z,14.60
2018-05-18T18:57:03.545Z,14.50
2018-05-18T18:59:31.062Z,14.50
2018-05-18T19:01:58.572Z,14.30
2018-05-18T19:04:26.259Z,14.20
2018-05-18T19:06:53.701Z,14.10
2018-05-18T19:09:21.221Z,14.00
2018-05-18T19:11:48.717Z,13.90
2018-05-18T19:14:16.225Z,13.90
2018-05-18T19:16:43.786Z,13.80
2018-05-18T19:19:11.277Z,13.70
2018-05-18T19:21:38.767Z,13.50
2018-05-18T19:24:06.390Z,13.30
2018-05-18T19:26:35.338Z,13.20
2018-05-18T19:29:02.822Z,13.20
2018-05-18T19:31:30.327Z,13.10
2018-05-18T19:33:58.593Z,13.00
2018-05-18T19:36:26.924Z,12.90
2018-05-18T19:38:55.175Z,12.80
2018-05-18T19:41:23.451Z,12.70
2018-05-18T19:43:51.032Z,12.70
2018-05-18T19:46:18.470Z,12.60
2018-05-18T19:48:45.973Z,12.50
2018-05-18T19:51:13.559Z,12.50
2018-05-18T19:53:41.095Z,12.40
2018-05-18T19:56:08.610Z,12.20
2018-05-18T19:58:36.876Z,12.20
2018-05-18T20:01:05.596Z,12.20
2018-05-18T20:03:33.105Z,12.20
2018-05-18T20:06:01.382Z,11.90
2018-05-18T20:08:29.649Z,11.70
2018-05-18T20:10:57.167Z,11.70
2018-05-18T20:13:24.664Z,11.60
2018-05-18T20:15:52.180Z,11.60
2018-05-18T20:18:19.690Z,11.50
2018-05-18T20:20:47.221Z,11.60
2018-05-18T20:23:14.731Z,11.40
2018-05-18T20:25:42.271Z,11.40
2018-05-18T20:28:09.780Z,11.30
2018-05-18T20:30:37.274Z,11.20
2018-05-18T20:33:04.765Z,11.20
2018-05-18T20:35:33.064Z,10.90
2018-05-18T20:38:00.594Z,10.90
2018-05-18T20:40:28.085Z,11.00
2018-05-18T20:42:55.553Z,11.10
2018-05-18T20:45:23.081Z,11.00
2018-05-18T20:47:51.341Z,10.90
2018-05-18T20:50:18.844Z,10.80
2018-05-18T20:52:46.349Z,10.90
2018-05-18T20:55:13.857Z,10.80
2018-05-18T20:57:41.353Z,10.60
2018-05-18T21:00:08.880Z,10.60
2018-05-18T21:02:36.384Z,10.50
2018-05-18T21:05:03.901Z,10.40
2018-05-18T21:07:31.384Z,10.40
2018-05-18T21:09:58.890Z,10.30
2018-05-18T21:12:27.150Z,10.20
2018-05-18T21:14:55.429Z,10.30
2018-05-18T21:17:23.042Z,10.20
2018-05-18T21:19:50.536Z,10.20
2018-05-18T21:22:18.037Z,10.10
2018-05-18T21:24:45.577Z,10.00
2018-05-18T21:27:13.853Z,9.90
2018-05-18T21:29:42.098Z,9.80
2018-05-18T21:32:09.600Z,9.80
2018-05-18T21:34:38.297Z,9.80
2018-05-18T21:37:05.806Z,9.80
2018-05-18T21:39:33.300Z,9.90
2018-05-18T21:42:01.582Z,9.70
2018-05-18T21:44:29.835Z,9.70
2018-05-18T21:46:57.326Z,9.70
2018-05-18T21:49:24.834Z,9.60
2018-05-18T21:51:52.330Z,9.60
2018-05-18T21:54:20.581Z,9.60
2018-05-18T21:56:48.097Z,9.60
2018-05-18T21:59:15.584Z,9.70
2018-05-18T22:01:43.081Z,9.70
2018-05-18T22:04:11.310Z,9.60
2018-05-18T22:06:38.885Z,9.60
2018-05-18T22:09:06.345Z,9.60
2018-05-18T22:11:33.817Z,9.40
2018-05-18T22:14:01.346Z,9.40
2018-05-18T22:16:28.841Z,9.40
2018-05-18T22:18:56.349Z,9.40
2018-05-18T22:21:23.834Z,9.50
2018-05-18T22:23:51.345Z,9.60
2018-05-18T22:26:18.826Z,9.60
2018-05-18T22:28:46.317Z,9.50
2018-05-18T22:31:13.801Z,9.40
2018-05-18T22:33:42.040Z,9.20
2018-05-18T22:36:09.574Z,9.20
2018-05-18T22:38:37.093Z,9.20
2018-05-18T22:41:05.321Z,9.20
2018-05-18T22:43:33.525Z,9.20
2018-05-18T22:46:01.052Z,9.10
2018-05-18T22:48:28.533Z,9.00
2018-05-18T22:50:57.665Z,9.00
2018-05-18T22:53:25.934Z,8.90
2018-05-18T22:55:53.421Z,8.90
2018-05-18T22:58:20.895Z,8.90
2018-05-18T23:00:48.414Z,8.90
2018-05-18T23:03:15.905Z,8.80
2018-05-18T23:05:43.400Z,8.80
2018-05-18T23:08:10.897Z,8.70
2018-05-18T23:10:39.144Z,8.60
2018-05-18T23:13:06.629Z,8.60
2018-05-18T23:15:34.882Z,8.50
2018-05-18T23:18:02.384Z,8.50
2018-05-18T23:20:29.867Z,8.50
2018-05-18T23:22:57.368Z,8.50
2018-05-18T23:25:24.844Z,8.40
2018-05-18T23:27:53.200Z,8.40
2018-05-18T23:30:21.407Z,8.40
2018-05-18T23:32:49.670Z,8.30
2018-05-18T23:35:17.946Z,8.30
2018-05-18T23:37:46.232Z,8.30
2018-05-18T23:40:14.477Z,8.20
2018-05-18T23:42:42.011Z,8.20
2018-05-18T23:45:09.506Z,8.20
2018-05-18T23:47:36.987Z,8.10
2018-05-18T23:50:05.295Z,8.00
2018-05-18T23:52:32.810Z,8.00
2018-05-18T23:55:00.308Z,8.00
2018-05-18T23:57:27.812Z,8.00
2018-05-18T23:59:55.316Z,7.90
